Time;durP1;ratioP1;P1;durP2;ratioP2;P2;SDS_P1;SDS_P2;PMS_P1;PMS_P2;Temp;Humidity;BMP_temperature;BMP_pressure;BME280_temperature;BME280_humidity;BME280_pressure;Samples;Min_cycle;Max_cycle;Signal;HPM_P1;HPM_P2
2022/12/23 11:28:18;;;;;;;12.40;11.20;;;;;;;9.61;100.00;98673.06;5122593;27;20558;-80
2022/12/23 11:31:10;;;;;;;12.93;11.63;;;;;;;9.60;100.00;98671.47;5087324;28;20277;-80
2022/12/23 11:33:40;;;;;;;13.70;11.77;;;;;;;9.40;100.00;98655.00;5086765;28;20281;-80
2022/12/23 11:36:12;;;;;;;14.47;12.77;;;;;;;9.58;100.00;98664.72;5079292;28;20797;-80
2022/12/23 11:39:00;;;;;;;13.60;12.20;;;;;;;9.59;100.00;98655.66;5069255;28;20244;-80
2022/12/23 11:41:32;;;;;;;14.43;12.93;;;;;;;9.52;100.00;98671.00;5069548;28;20266;-79
2022/12/23 11:44:05;;;;;;;14.90;13.30;;;;;;;9.38;100.00;98665.09;5067818;28;20567;-80
2022/12/23 11:46:33;;;;;;;14.80;13.20;;;;;;;9.39;100.00;98669.41;5069213;28;20242;-80
2022/12/23 11:49:21;;;;;;;14.83;13.40;;;;;;;9.31;100.00;98660.94;5067347;28;20228;-81
2022/12/23 11:52:12;;;;;;;14.63;12.30;;;;;;;9.28;100.00;98649.66;5067575;28;20228;-80
2022/12/23 11:54:39;;;;;;;15.27;13.70;;;;;;;9.26;100.00;98656.31;5068836;28;20240;-80
2022/12/23 11:57:14;;;;;;;15.33;13.73;;;;;;;9.34;100.00;98647.91;5068826;28;20235;-80
2022/12/23 11:59:48;;;;;;;17.73;15.47;;;;;;;9.29;100.00;98645.94;5068848;28;20231;-80
2022/12/23 12:02:29;;;;;;;18.70;15.83;;;;;;;9.27;100.00;98645.38;5068095;28;20801;-80
2022/12/23 12:05:17;;;;;;;15.80;14.10;;;;;;;9.30;100.00;98649.44;5069258;28;20235;-81
2022/12/23 12:07:44;;;;;;;14.57;13.17;;;;;;;9.27;100.00;98656.06;5052116;28;20228;-80
2022/12/23 12:10:31;;;;;;;15.80;14.20;;;;;;;9.31;100.00;98661.75;5068066;28;20315;-80
2022/12/23 12:13:05;;;;;;;14.83;13.33;;;;;;;9.26;100.00;98649.09;5070116;28;20290;-80
2022/12/23 12:15:41;;;;;;;13.97;12.53;;;;;;;9.22;100.00;98650.63;5069002;28;20220;-80
2022/12/23 12:18:11;;;;;;;15.63;14.00;;;;;;;9.23;100.00;98640.75;5069452;28;20233;-80
2022/12/23 12:20:44;;;;;;;15.27;13.77;;;;;;;9.10;100.00;98636.44;5069509;28;20224;-80
2022/12/23 12:23:27;;;;;;;15.07;13.57;;;;;;;9.04;100.00;98640.06;5051948;28;20664;-80
2022/12/23 12:25:59;;;;;;;13.50;12.10;;;;;;;8.97;100.00;98641.22;5068324;28;20255;-80
2022/12/23 12:28:44;;;;;;;14.07;12.67;;;;;;;8.88;100.00;98650.63;5068992;28;20229;-80
2022/12/23 12:31:22;;;;;;;14.77;13.27;;;;;;;8.80;100.00;98647.25;5069894;28;20232;-80
2022/12/23 12:33:53;;;;;;;15.80;14.20;;;;;;;8.81;100.00;98659.59;5071408;28;20233;-81
2022/12/23 12:36:52;;;;;;;15.63;14.03;;;;;;;8.81;100.00;98664.94;5075830;28;20213;-81
2022/12/23 12:39:24;;;;;;;16.07;14.47;;;;;;;8.82;100.00;98660.38;5060663;28;20232;-80
2022/12/23 12:41:58;;;;;;;15.73;14.03;;;;;;;8.85;100.00;98651.91;5059731;28;20241;-79
2022/12/23 12:44:50;;;;;;;14.70;13.13;;;;;;;8.97;100.00;98643.88;5062765;28;20659;-81
2022/12/23 12:47:32;;;;;;;17.73;15.87;;;;;;;8.96;100.00;98652.97;5057603;28;20253;-80
2022/12/23 12:50:26;;;;;;;43.23;30.20;;;;;;;8.92;100.00;98659.78;5053008;28;20324;-80
2022/12/23 12:52:55;;;;;;;19.10;16.57;;;;;;;8.94;100.00;98679.09;5035038;28;20255;-80
2022/12/23 12:55:25;;;;;;;32.13;22.83;;;;;;;8.93;100.00;98659.56;5033915;28;20229;-79
2022/12/23 12:57:52;;;;;;;16.57;14.53;;;;;;;8.84;100.00;98671.66;5036629;28;20558;-81
2022/12/23 13:00:22;;;;;;;17.43;15.47;;;;;;;8.82;100.00;98671.88;5034491;28;20257;-80
2022/12/23 13:02:50;;;;;;;15.30;13.80;;;;;;;8.81;100.00;98667.59;5053809;28;20618;-80
2022/12/23 13:05:41;;;;;;;15.57;13.97;;;;;;;8.63;100.00;98674.88;5057833;28;20231;-81
2022/12/23 13:08:13;;;;;;;18.70;14.77;;;;;;;8.59;100.00;98673.69;5054284;28;20233;-79
2022/12/23 13:10:55;;;;;;;20.93;15.93;;;;;;;8.48;100.00;98686.00;5061083;28;20233;-78
2022/12/23 13:13:34;;;;;;;16.43;14.47;;;;;;;8.46;100.00;98679.25;5060111;28;20287;-79
2022/12/23 13:16:22;;;;;;;15.23;13.07;;;;;;;8.43;100.00;98675.19;5042838;28;20209;-79
2022/12/23 13:19:26;;;;;;;15.37;13.77;;;;;;;8.42;100.00;98686.09;5053000;28;20700;-79
2022/12/23 13:21:59;;;;;;;14.93;13.33;;;;;;;8.53;100.00;98675.44;5052100;28;20229;-79
2022/12/23 13:24:44;;;;;;;14.90;13.40;;;;;;;8.65;100.00;98676.28;5052121;28;20245;-79
2022/12/23 13:27:29;;;;;;;14.37;12.87;;;;;;;8.81;100.00;98686.28;5039533;28;20292;-79
2022/12/23 13:30:04;;;;;;;13.37;11.97;;;;;;;8.84;100.00;98690.34;5035107;28;20245;-82
2022/12/23 13:33:00;;;;;;;13.50;12.10;;;;;;;8.79;100.00;98690.22;5038581;28;20265;-79
2022/12/23 13:35:36;;;;;;;12.73;11.30;;;;;;;8.75;100.00;98695.22;5013983;28;20279;-79
2022/12/23 13:38:24;;;;;;;11.93;10.73;;;;;;;8.66;100.00;98688.59;5057132;28;20241;-79
2022/12/23 13:40:57;;;;;;;12.40;11.10;;;;;;;8.66;100.00;98695.78;5037680;28;20236;-80
2022/12/23 13:43:32;;;;;;;12.03;10.77;;;;;;;8.64;100.00;98685.31;5059558;28;20229;-79
2022/12/23 13:46:00;;;;;;;11.57;10.47;;;;;;;8.71;100.00;98691.38;5035418;28;20358;-79
2022/12/23 13:48:51;;;;;;;11.67;10.47;;;;;;;8.83;100.00;98691.38;5053490;28;20295;-79
2022/12/23 13:51:46;;;;;;;11.03;9.93;;;;;;;8.81;100.00;98701.50;5050178;28;20345;-79
2022/12/23 13:54:16;;;;;;;11.93;10.70;;;;;;;8.77;100.00;98695.78;5026642;28;20221;-78
2022/12/23 13:57:06;;;;;;;11.90;10.70;;;;;;;8.74;100.00;98688.25;5027044;28;20532;-80
2022/12/23 13:59:42;;;;;;;12.33;10.80;;;;;;;8.75;100.00;98692.53;5033069;28;20321;-80
2022/12/23 14:02:34;;;;;;;15.10;13.63;;;;;;;8.71;100.00;98691.38;5055818;28;20253;-79
2022/12/23 14:05:08;;;;;;;13.20;11.90;;;;;;;8.59;100.00;98695.88;5024079;28;20238;-79
2022/12/23 14:07:43;;;;;;;17.50;15.90;;;;;;;8.39;100.00;98690.03;5036577;28;20241;-80
2022/12/23 14:10:11;;;;;;;16.73;15.03;;;;;;;8.25;100.00;98694.72;5057268;28;20221;-79
2022/12/23 14:12:39;;;;;;;15.87;14.27;;;;;;;8.13;100.00;98693.03;5058511;28;20231;-80
2022/12/23 14:15:30;;;;;;;14.90;13.40;;;;;;;7.94;100.00;98681.59;5057898;28;20229;-80
2022/12/23 14:18:17;;;;;;;17.33;14.03;;;;;;;7.83;100.00;98688.53;5054437;28;20236;-80
2022/12/23 14:21:16;;;;;;;24.47;19.50;;;;;;;7.61;100.00;98682.00;5076529;28;20274;-81
2022/12/23 14:23:57;;;;;;;17.30;14.57;;;;;;;7.51;100.00;98679.84;5078946;28;20251;-81
2022/12/23 14:26:41;;;;;;;14.30;12.80;;;;;;;7.43;100.00;98695.34;5078119;28;20224;-81
2022/12/23 14:29:42;;;;;;;17.23;15.50;;;;;;;7.24;100.00;98683.84;5077958;28;20247;-81
2022/12/23 14:32:29;;;;;;;16.87;15.07;;;;;;;7.09;100.00;98680.75;5073759;28;20240;-81
2022/12/23 14:35:16;;;;;;;19.47;16.63;;;;;;;7.06;100.00;98667.84;5057807;28;20286;-81
2022/12/23 14:38:04;;;;;;;20.10;17.97;;;;;;;7.00;100.00;98674.06;5076500;28;20290;-81
2022/12/23 14:40:37;;;;;;;28.97;26.07;;;;;;;6.98;100.00;98682.28;5077344;28;20701;-81
2022/12/23 14:43:26;;;;;;;25.13;16.73;;;;;;;6.87;100.00;98684.84;5078838;28;20259;-81
2022/12/23 14:45:58;;;;;;;15.13;13.53;;;;;;;6.77;100.00;98685.31;5078952;28;20227;-81
2022/12/23 14:48:49;;;;;;;15.70;14.00;;;;;;;6.75;100.00;98678.59;5059691;28;20278;-82
2022/12/23 14:51:37;;;;;;;18.47;15.23;;;;;;;6.68;100.00;98678.66;5079384;28;20255;-81
2022/12/23 14:54:07;;;;;;;19.60;15.47;;;;;;;6.70;100.00;98678.44;5059403;28;20224;-81
2022/12/23 14:56:40;;;;;;;28.13;24.27;;;;;;;6.68;100.00;98686.63;5077916;28;20259;-81
2022/12/23 14:59:20;;;;;;;19.07;17.07;;;;;;;6.62;100.00;98679.53;5078825;28;20244;-81
2022/12/23 15:01:57;;;;;;;14.90;13.40;;;;;;;6.63;100.00;98679.31;5060122;28;20224;-81
2022/12/23 15:04:44;;;;;;;18.93;16.93;;;;;;;6.66;100.00;98677.25;5060265;28;20230;-81
2022/12/23 15:07:25;;;;;;;14.17;12.77;;;;;;;6.68;100.00;98685.81;5044441;28;20259;-81
2022/12/23 15:09:55;;;;;;;14.80;13.37;;;;;;;6.62;100.00;98674.22;5076901;28;20243;-81
2022/12/23 15:12:34;;;;;;;15.17;13.67;;;;;;;6.71;100.00;98685.41;5060497;28;20239;-81
2022/12/23 15:15:05;;;;;;;14.73;13.23;;;;;;;6.64;100.00;98680.94;5060599;28;20640;-81
2022/12/23 15:17:35;;;;;;;14.53;13.03;;;;;;;6.63;100.00;98684.63;5061242;28;20232;-81
2022/12/23 15:20:18;;;;;;;16.00;14.37;;;;;;;6.64;100.00;98677.44;5076788;28;20236;-80
2022/12/23 15:22:46;;;;;;;15.53;13.93;;;;;;;6.59;100.00;98678.09;5076782;28;20230;-82
2022/12/23 15:25:32;;;;;;;17.93;16.13;;;;;;;6.56;100.00;98680.41;5076304;28;20232;-81
2022/12/23 15:28:00;;;;;;;17.17;15.30;;;;;;;6.55;100.00;98681.41;5077277;28;20251;-81
2022/12/23 15:30:33;;;;;;;15.27;13.70;;;;;;;6.53;100.00;98691.47;5060568;28;20236;-81
2022/12/23 15:33:07;;;;;;;14.93;13.33;;;;;;;6.54;100.00;98685.09;5059926;28;20244;-81
2022/12/23 15:35:54;;;;;;;15.17;13.60;;;;;;;6.49;100.00;98685.75;5078234;28;20236;-81
2022/12/23 15:38:24;;;;;;;17.33;14.60;;;;;;;6.40;100.00;98681.72;5077414;28;20240;-81
2022/12/23 15:41:03;;;;;;;15.87;14.20;;;;;;;6.38;100.00;98680.31;5076383;28;20242;-80
2022/12/23 15:43:30;;;;;;;16.00;14.47;;;;;;;6.33;100.00;98677.50;5076577;28;20237;-81
2022/12/23 15:46:27;;;;;;;15.20;13.60;;;;;;;6.35;100.00;98684.22;5078119;28;20231;-81
2022/12/23 15:48:56;;;;;;;15.30;13.73;;;;;;;6.33;100.00;98690.78;5076063;28;20236;-79
2022/12/23 15:51:30;;;;;;;18.07;15.30;;;;;;;6.29;100.00;98684.28;5070838;28;20706;-80
2022/12/23 15:54:23;;;;;;;16.73;14.97;;;;;;;6.33;100.00;98682.81;5073622;28;20237;-80
2022/12/23 15:56:52;;;;;;;18.30;16.33;;;;;;;6.28;100.00;98682.63;5073731;28;20252;-80
2022/12/23 15:59:35;;;;;;;25.30;21.57;;;;;;;6.33;100.00;98680.16;5074764;28;20233;-81
2022/12/23 16:02:12;;;;;;;24.27;20.83;;;;;;;6.31;100.00;98688.34;5074098;28;20231;-81
2022/12/23 16:05:01;;;;;;;22.43;19.07;;;;;;;6.25;100.00;98677.75;5073913;28;20311;-80
2022/12/23 16:07:40;;;;;;;17.17;15.37;;;;;;;6.22;100.00;98681.66;5074543;28;20233;-80
2022/12/23 16:10:15;;;;;;;16.30;14.67;;;;;;;6.18;100.00;98683.13;5075034;28;20228;-80
2022/12/23 16:12:42;;;;;;;18.13;16.33;;;;;;;6.19;100.00;98680.25;5074344;28;20216;-81
2022/12/23 16:15:38;;;;;;;19.47;17.37;;;;;;;6.18;100.00;98677.78;5061645;28;20228;-81
2022/12/23 16:18:24;;;;;;;27.63;23.50;;;;;;;6.13;100.00;98670.47;5064796;28;20244;-80
2022/12/23 16:20:56;;;;;;;34.00;28.53;;;;;;;6.10;100.00;98664.75;5078851;28;20236;-81
2022/12/23 16:23:28;;;;;;;21.50;19.27;;;;;;;6.05;100.00;98673.38;5061823;28;20240;-81
2022/12/23 16:25:57;;;;;;;17.70;15.90;;;;;;;6.08;100.00;98661.47;5079055;28;20235;-81
2022/12/23 16:28:34;;;;;;;17.57;15.73;;;;;;;6.05;100.00;98662.75;5077986;28;20229;-80
2022/12/23 16:31:05;;;;;;;16.93;15.13;;;;;;;6.04;100.00;98666.41;5078359;28;20236;-80
2022/12/23 16:33:38;;;;;;;16.30;14.67;;;;;;;6.07;100.00;98659.84;5061923;28;20360;-81
2022/12/23 16:36:23;;;;;;;17.90;16.10;;;;;;;6.09;100.00;98669.25;5078762;28;20229;-80
2022/12/23 16:39:13;;;;;;;17.67;15.83;;;;;;;6.13;100.00;98661.66;5078462;28;20236;-81
2022/12/23 16:41:40;;;;;;;18.13;16.33;;;;;;;6.11;100.00;98659.22;5044522;28;20262;-80
2022/12/23 16:44:07;;;;;;;20.00;17.93;;;;;;;6.14;100.00;98660.63;5078038;28;20316;-81
2022/12/23 16:46:43;;;;;;;19.77;17.80;;;;;;;6.10;100.00;98651.47;5078720;28;20229;-81
2022/12/23 16:49:16;;;;;;;18.80;16.77;;;;;;;6.11;100.00;98651.22;5060648;28;20236;-81
2022/12/23 16:51:43;;;;;;;18.20;16.23;;;;;;;6.12;100.00;98654.69;5077757;28;20311;-81
2022/12/23 16:54:15;;;;;;;19.20;17.17;;;;;;;6.13;100.00;98656.34;5077627;28;20232;-80
2022/12/23 16:56:42;;;;;;;37.20;30.87;;;;;;;6.14;100.00;98652.66;5077179;28;20228;-81
2022/12/23 16:59:09;;;;;;;23.73;20.73;;;;;;;6.19;100.00;98655.50;5076557;28;20225;-81
2022/12/23 17:01:38;;;;;;;19.17;17.17;;;;;;;6.19;100.00;98658.16;5078717;28;20227;-81
2022/12/23 17:04:06;;;;;;;22.20;19.80;;;;;;;6.22;100.00;98664.88;5076546;28;20230;-81
2022/12/23 17:06:34;;;;;;;18.63;16.70;;;;;;;6.21;100.00;98666.72;5078187;28;20228;-81
2022/12/23 17:09:02;;;;;;;18.30;16.40;;;;;;;6.19;100.00;98674.13;5076507;28;20253;-81
2022/12/23 17:11:39;;;;;;;18.17;16.23;;;;;;;6.22;100.00;98680.84;5076454;28;20237;-82
2022/12/23 17:14:08;;;;;;;20.43;17.60;;;;;;;6.22;100.00;98679.00;5076538;28;20243;-80
2022/12/23 17:16:41;;;;;;;19.77;17.13;;;;;;;6.18;100.00;98672.47;5077234;28;20323;-81
2022/12/23 17:19:08;;;;;;;19.67;17.57;;;;;;;6.14;100.00;98685.38;5060541;28;20286;-81
2022/12/23 17:21:38;;;;;;;19.37;17.00;;;;;;;6.13;100.00;98670.47;5077552;28;20225;-81
2022/12/23 17:24:16;;;;;;;18.00;16.10;;;;;;;6.08;100.00;98674.78;5076618;28;20232;-80
2022/12/23 17:26:42;;;;;;;18.07;16.17;;;;;;;6.07;100.00;98676.63;5075243;28;20222;-81
2022/12/23 17:29:10;;;;;;;19.33;17.23;;;;;;;6.06;100.00;98688.31;5077054;28;20236;-81
2022/12/23 17:31:39;;;;;;;19.07;16.77;;;;;;;5.98;100.00;98682.41;5075571;28;20245;-80
2022/12/23 17:34:10;;;;;;;19.13;17.13;;;;;;;5.95;100.00;98690.81;5075558;28;20232;-80
2022/12/23 17:36:37;;;;;;;18.13;16.17;;;;;;;6.00;100.00;98691.81;5076879;28;20305;-81
2022/12/23 17:39:10;;;;;;;17.83;15.93;;;;;;;5.99;100.00;98681.38;5075588;28;20239;-81
2022/12/23 17:41:38;;;;;;;17.27;15.47;;;;;;;6.07;100.00;98687.25;5075671;28;20233;-81
2022/12/23 17:44:05;;;;;;;17.43;15.43;;;;;;;6.08;100.00;98678.25;5057317;28;20224;-80
2022/12/23 17:46:32;;;;;;;18.03;16.13;;;;;;;6.08;100.00;98680.91;5059575;28;20577;-81
2022/12/23 17:48:59;;;;;;;17.33;15.47;;;;;;;6.15;100.00;98673.72;5076534;28;20236;-80
2022/12/23 17:51:26;;;;;;;17.00;15.20;;;;;;;6.14;100.00;98661.47;5076681;28;20229;-81
2022/12/23 17:53:54;;;;;;;17.57;15.77;;;;;;;6.25;100.00;98659.97;5074663;28;20250;-80
2022/12/23 17:56:26;;;;;;;17.20;15.50;;;;;;;6.25;100.00;98651.97;5059424;28;20323;-81
2022/12/23 17:58:53;;;;;;;19.27;17.27;;;;;;;6.28;100.00;98653.38;5076693;28;20256;-81
2022/12/23 18:01:26;;;;;;;19.30;16.97;;;;;;;6.27;100.00;98646.44;5077750;28;20271;-81
2022/12/23 18:03:54;;;;;;;23.83;20.80;;;;;;;6.20;100.00;98633.97;5060221;28;20236;-81
2022/12/23 18:06:22;;;;;;;30.73;24.63;;;;;;;6.26;100.00;98645.59;5073484;28;20239;-81
2022/12/23 18:08:49;;;;;;;29.87;26.17;;;;;;;6.27;100.00;98644.59;5076712;28;20262;-81
2022/12/23 18:11:20;;;;;;;27.57;24.43;;;;;;;6.30;100.00;98635.38;5077166;28;20237;-81
2022/12/23 18:13:49;;;;;;;24.13;21.50;;;;;;;6.29;100.00;98639.88;5077953;28;20236;-80
2022/12/23 18:16:16;;;;;;;24.83;22.17;;;;;;;6.25;100.00;98643.19;5057816;28;20307;-81
2022/12/23 18:18:43;;;;;;;24.63;21.03;;;;;;;6.23;100.00;98650.56;5074709;28;20274;-81
2022/12/23 18:21:22;;;;;;;22.60;20.27;;;;;;;6.25;100.00;98640.53;5074334;28;20235;-80
2022/12/23 18:23:51;;;;;;;25.75;23.25;;;;;;;6.15;100.00;98633.84;5073552;28;20488;-81
2022/12/23 18:26:17;;;;;;;23.43;21.03;;;;;;;6.05;100.00;98632.69;5065326;28;20229;-80
2022/12/23 18:28:44;;;;;;;24.37;21.83;;;;;;;6.03;100.00;98638.19;5054076;28;20236;-81
2022/12/23 18:31:15;;;;;;;23.83;21.33;;;;;;;6.06;100.00;98643.09;5054959;28;20292;-82
2022/12/23 18:33:42;;;;;;;24.97;21.70;;;;;;;6.06;100.00;98648.44;5054686;28;20244;-81
2022/12/23 18:36:19;;;;;;;24.87;22.17;;;;;;;6.03;100.00;98627.56;5037293;28;20225;-81
2022/12/23 18:38:46;;;;;;;24.47;21.73;;;;;;;5.98;100.00;98653.97;5055146;28;20236;-81
2022/12/23 18:41:13;;;;;;;24.90;20.93;;;;;;;5.99;100.00;98652.13;5056850;28;20226;-81
2022/12/23 18:43:40;;;;;;;22.07;19.73;;;;;;;6.02;100.00;98641.88;5055239;28;20287;-81
2022/12/23 18:46:07;;;;;;;20.90;18.70;;;;;;;6.03;100.00;98646.16;5053725;28;20237;-80
2022/12/23 18:48:33;;;;;;;20.73;18.53;;;;;;;5.99;100.00;98646.81;5054720;28;20237;-80
2022/12/23 18:51:00;;;;;;;21.70;19.40;;;;;;;5.91;100.00;98647.06;5054646;28;20600;-81
2022/12/23 18:53:27;;;;;;;21.30;19.00;;;;;;;5.87;100.00;98643.22;5056486;28;20260;-81
2022/12/23 18:55:54;;;;;;;21.13;18.10;;;;;;;5.91;100.00;98655.88;5055034;28;20781;-81
2022/12/23 18:58:21;;;;;;;19.40;17.43;;;;;;;5.91;100.00;98650.56;5030023;28;20242;-81
2022/12/23 19:00:49;;;;;;;19.63;17.63;;;;;;;5.87;100.00;98640.56;5068742;28;20206;-80
2022/12/23 19:03:25;;;;;;;20.57;18.47;;;;;;;5.90;100.00;98632.97;5055731;28;20253;-81
2022/12/23 19:05:53;;;;;;;22.97;20.57;;;;;;;5.92;100.00;98641.56;5037965;28;20228;-80
2022/12/23 19:08:20;;;;;;;24.30;21.70;;;;;;;5.97;100.00;98635.59;5053895;28;20340;-80
2022/12/23 19:10:53;;;;;;;21.33;19.07;;;;;;;5.95;100.00;98638.47;5055641;28;20263;-81
2022/12/23 19:13:20;;;;;;;22.60;20.20;;;;;;;5.92;100.00;98644.22;5037545;28;20715;-81
2022/12/23 19:15:46;;;;;;;21.77;19.57;;;;;;;5.93;100.00;98635.19;5056147;28;20289;-81
2022/12/23 19:18:16;;;;;;;21.13;18.83;;;;;;;5.96;100.00;98637.44;5053931;28;20260;-81
2022/12/23 19:20:44;;;;;;;19.40;17.33;;;;;;;5.96;100.00;98644.59;5053991;28;20283;-81
2022/12/23 19:23:11;;;;;;;19.33;17.33;;;;;;;6.02;100.00;98649.06;5053972;28;20643;-81
2022/12/23 19:25:42;;;;;;;19.17;17.17;;;;;;;6.03;100.00;98654.16;5054653;28;20236;-81
2022/12/23 19:28:22;;;;;;;18.73;16.73;;;;;;;6.02;100.00;98652.50;5053847;28;20243;-81
2022/12/23 19:30:49;;;;;;;19.90;17.80;;;;;;;6.00;100.00;98649.28;5037504;28;20571;-81
2022/12/23 19:33:16;;;;;;;19.13;17.13;;;;;;;5.97;100.00;98652.34;5054241;28;20229;-80
2022/12/23 19:35:43;;;;;;;19.20;17.20;;;;;;;5.98;100.00;98655.81;5055039;28;20236;-80
2022/12/23 19:38:10;;;;;;;20.20;17.47;;;;;;;5.99;100.00;98652.13;5052656;28;20275;-80
2022/12/23 19:40:38;;;;;;;19.83;17.83;;;;;;;5.99;100.00;98644.16;5053171;28;20221;-80
2022/12/23 19:43:04;;;;;;;17.77;16.07;;;;;;;6.11;100.00;98637.94;5053200;28;20229;-81
2022/12/23 19:45:31;;;;;;;17.47;15.60;;;;;;;6.09;100.00;98629.38;5052830;28;20297;-80
2022/12/23 19:47:58;;;;;;;18.40;16.50;;;;;;;6.07;100.00;98634.06;5053997;28;20225;-80
2022/12/23 19:50:25;;;;;;;17.87;15.83;;;;;;;6.04;100.00;98623.88;5056289;28;20229;-80
2022/12/23 19:52:53;;;;;;;16.97;15.17;;;;;;;6.06;100.00;98613.03;5058247;28;20233;-80
2022/12/23 19:55:20;;;;;;;15.77;14.07;;;;;;;6.18;100.00;98603.31;5056877;28;20227;-81
2022/12/23 19:57:46;;;;;;;16.70;15.07;;;;;;;6.28;100.00;98592.19;5058366;28;20253;-80
2022/12/23 20:00:14;;;;;;;16.27;14.27;;;;;;;6.24;100.00;98591.00;5056667;28;20644;-80
2022/12/23 20:02:42;;;;;;;15.33;13.73;;;;;;;6.35;100.00;98585.78;5056894;28;20323;-81
2022/12/23 20:05:09;;;;;;;15.07;13.57;;;;;;;6.37;100.00;98577.59;5040323;28;20652;-80
2022/12/23 20:07:36;;;;;;;15.50;13.90;;;;;;;6.37;100.00;98585.56;5056980;28;20244;-81
2022/12/23 20:10:04;;;;;;;13.43;11.43;;;;;;;6.42;100.00;98588.41;5057430;28;20251;-80
2022/12/23 20:12:30;;;;;;;12.70;11.50;;;;;;;6.41;100.00;98579.59;5056757;28;20235;-80
2022/12/23 20:14:58;;;;;;;12.77;11.47;;;;;;;6.47;100.00;98583.25;5057298;28;20324;-81
2022/12/23 20:17:25;;;;;;;13.10;11.70;;;;;;;6.48;100.00;98590.19;5056698;28;20245;-81
2022/12/23 20:19:52;;;;;;;12.43;11.23;;;;;;;6.54;100.00;98574.16;5056802;28;20600;-81
2022/12/23 20:22:19;;;;;;;12.87;11.37;;;;;;;6.56;100.00;98561.47;5057564;28;20270;-80
2022/12/23 20:24:45;;;;;;;12.50;11.10;;;;;;;6.64;100.00;98576.31;5058043;28;20230;-81
2022/12/23 20:27:12;;;;;;;12.10;10.80;;;;;;;6.62;100.00;98592.50;5056485;28;20298;-81
2022/12/23 20:29:41;;;;;;;12.57;11.10;;;;;;;6.75;100.00;98588.91;5057694;28;20240;-80
2022/12/23 20:32:08;;;;;;;12.77;11.50;;;;;;;6.78;100.00;98582.31;5056178;28;20228;-80
2022/12/23 20:34:34;;;;;;;13.93;12.63;;;;;;;6.69;100.00;98573.81;5056409;28;20654;-80
2022/12/23 20:37:05;;;;;;;15.17;12.47;;;;;;;6.67;100.00;98564.44;5055630;28;20707;-80
2022/12/23 20:39:32;;;;;;;15.03;13.27;;;;;;;6.72;100.00;98572.56;5056051;28;20595;-80
2022/12/23 20:41:59;;;;;;;15.27;13.80;;;;;;;6.72;100.00;98576.03;5057232;28;20299;-81
2022/12/23 20:44:25;;;;;;;16.13;14.53;;;;;;;6.67;100.00;98567.91;5055555;28;20312;-81
2022/12/23 20:47:04;;;;;;;17.37;15.67;;;;;;;6.65;100.00;98567.31;5057141;28;20240;-80
2022/12/23 20:49:31;;;;;;;18.30;16.20;;;;;;;6.70;100.00;98556.00;5054581;28;20228;-80
2022/12/23 20:51:58;;;;;;;17.40;15.70;;;;;;;6.59;100.00;98566.31;5056376;28;20235;-81
2022/12/23 20:54:24;;;;;;;18.53;16.37;;;;;;;6.52;100.00;98565.59;5056346;28;20226;-80
2022/12/23 20:56:59;;;;;;;19.67;17.67;;;;;;;6.46;100.00;98571.78;5039923;28;20694;-80
2022/12/23 20:59:25;;;;;;;19.43;17.43;;;;;;;6.48;100.00;98563.59;5055944;28;20233;-80
2022/12/23 21:01:52;;;;;;;19.20;17.20;;;;;;;6.48;100.00;98561.75;5057276;28;20367;-81
2022/12/23 21:04:19;;;;;;;18.87;16.80;;;;;;;6.40;100.00;98547.88;5055242;28;20304;-80
2022/12/23 21:06:46;;;;;;;19.70;17.70;;;;;;;6.34;100.00;98551.44;5056330;28;20240;-80
2022/12/23 21:09:14;;;;;;;18.70;16.67;;;;;;;6.29;100.00;98569.91;5038967;28;21456;-81
2022/12/23 21:11:43;;;;;;;19.73;17.73;;;;;;;6.30;100.00;98560.88;5055429;28;20242;-80
2022/12/23 21:14:10;;;;;;;19.67;17.67;;;;;;;6.25;100.00;98544.78;5056734;28;20231;-80
2022/12/23 21:16:37;;;;;;;19.70;17.73;;;;;;;6.26;100.00;98536.56;5056615;28;20233;-81
2022/12/23 21:19:06;;;;;;;19.00;17.00;;;;;;;6.32;100.00;98534.88;5057260;28;20236;-80
2022/12/23 21:21:33;;;;;;;17.07;15.27;;;;;;;6.34;100.00;98527.50;5055827;28;20233;-81
2022/12/23 21:24:02;;;;;;;18.80;16.80;;;;;;;6.26;100.00;98528.56;5057133;28;20687;-81
2022/12/23 21:26:31;;;;;;;19.07;17.07;;;;;;;6.28;100.00;98523.03;5038479;28;20232;-80
2022/12/23 21:28:59;;;;;;;19.77;17.77;;;;;;;6.26;100.00;98525.09;5055721;28;20598;-80
2022/12/23 21:31:27;;;;;;;18.20;16.30;;;;;;;6.29;100.00;98516.69;5057050;28;20286;-80
2022/12/23 21:33:54;;;;;;;18.70;16.80;;;;;;;6.20;100.00;98530.25;5055335;28;20291;-80
2022/12/23 21:36:23;;;;;;;19.20;17.10;;;;;;;6.16;100.00;98521.09;5056075;28;20251;-81
2022/12/23 21:38:51;;;;;;;17.77;16.00;;;;;;;6.24;100.00;98504.06;5057729;28;20704;-81
2022/12/23 21:41:24;;;;;;;17.77;15.53;;;;;;;6.30;100.00;98526.31;5040527;28;20653;-81
2022/12/23 21:43:51;;;;;;;18.53;16.53;;;;;;;6.31;100.00;98514.63;5056572;28;20236;-81
2022/12/23 21:46:19;;;;;;;17.33;15.57;;;;;;;6.35;100.00;98487.34;5039519;28;20233;-80
2022/12/23 21:48:47;;;;;;;18.50;16.60;;;;;;;6.36;100.00;98488.97;5040910;28;20241;-81
2022/12/23 21:51:26;;;;;;;17.00;15.27;;;;;;;6.29;100.00;98482.94;5050397;28;20292;-81
2022/12/23 21:54:00;;;;;;;17.67;16.07;;;;;;;6.27;100.00;98506.25;5040922;28;20247;-80
2022/12/23 21:56:29;;;;;;;18.07;16.17;;;;;;;6.26;100.00;98517.94;5055902;28;20317;-81
2022/12/23 21:58:57;;;;;;;17.67;15.87;;;;;;;6.32;100.00;98505.59;5056580;28;20287;-81
2022/12/23 22:01:24;;;;;;;17.33;15.63;;;;;;;6.33;100.00;98501.91;5056433;28;20715;-81
2022/12/23 22:03:52;;;;;;;17.37;15.60;;;;;;;6.35;100.00;98508.63;5056524;28;20230;-81
2022/12/23 22:06:22;;;;;;;19.03;17.10;;;;;;;6.35;100.00;98490.00;5060723;28;20316;-82
2022/12/23 22:08:51;;;;;;;20.90;18.80;;;;;;;6.30;100.00;98497.84;5052866;28;20239;-83
2022/12/23 22:11:22;;;;;;;21.93;19.83;;;;;;;6.37;100.00;98508.44;5050423;28;20221;-82
2022/12/23 22:13:49;;;;;;;19.67;17.67;;;;;;;6.43;100.00;98504.91;5062058;28;20237;-81
2022/12/23 22:16:21;;;;;;;19.53;17.57;;;;;;;6.43;100.00;98496.91;5059404;28;20264;-81
2022/12/23 22:18:49;;;;;;;17.77;16.00;;;;;;;6.42;100.00;98497.94;5062226;28;20231;-82
2022/12/23 22:21:19;;;;;;;17.90;16.10;;;;;;;6.44;100.00;98494.00;5067845;28;20233;-82
2022/12/23 22:23:49;;;;;;;18.47;16.57;;;;;;;6.41;100.00;98501.63;5047766;28;20249;-82
2022/12/23 22:26:20;;;;;;;17.30;15.50;;;;;;;6.47;100.00;98511.41;5048889;28;20237;-81
2022/12/23 22:29:00;;;;;;;18.53;15.90;;;;;;;6.45;100.00;98502.81;5045714;28;20248;-82
2022/12/23 22:31:39;;;;;;;17.37;15.67;;;;;;;6.42;100.00;98492.63;5064144;28;20293;-82
2022/12/23 22:34:12;;;;;;;17.13;15.43;;;;;;;6.42;100.00;98514.72;5064718;28;20293;-82
2022/12/23 22:36:44;;;;;;;17.37;15.67;;;;;;;6.26;100.00;98509.94;5069038;28;20230;-82
2022/12/23 22:39:23;;;;;;;17.93;16.03;;;;;;;6.28;100.00;98523.03;5052786;28;20718;-82
2022/12/23 22:41:51;;;;;;;17.67;15.87;;;;;;;6.25;100.00;98508.34;5051373;28;20225;-82
2022/12/23 22:44:19;;;;;;;17.77;15.87;;;;;;;6.27;100.00;98500.13;5052059;28;20225;-82
2022/12/23 22:46:49;;;;;;;17.20;15.43;;;;;;;6.20;100.00;98485.03;5052846;28;20229;-83
2022/12/23 22:49:17;;;;;;;19.10;17.20;;;;;;;6.22;100.00;98484.00;5031640;28;20759;-83
2022/12/23 22:51:47;;;;;;;18.97;17.03;;;;;;;6.16;100.00;98483.03;5071048;28;20240;-83
2022/12/23 22:54:18;;;;;;;20.27;18.17;;;;;;;6.14;100.00;98493.91;5043807;28;20251;-82
2022/12/23 22:56:47;;;;;;;20.03;17.93;;;;;;;6.06;100.00;98477.44;5037790;28;20197;-82
2022/12/23 22:59:22;;;;;;;19.20;17.23;;;;;;;6.06;100.00;98483.56;5052638;28;20324;-82
2022/12/23 23:01:56;;;;;;;18.63;16.77;;;;;;;6.08;100.00;98481.47;5052018;28;20224;-83
2022/12/23 23:04:27;;;;;;;17.70;16.00;;;;;;;6.15;100.00;98479.59;5053140;28;20229;-83
2022/12/23 23:06:56;;;;;;;17.87;16.00;;;;;;;6.11;100.00;98489.00;5036069;28;20233;-82
2022/12/23 23:09:24;;;;;;;17.53;15.83;;;;;;;6.08;100.00;98480.66;5037199;28;20240;-83
2022/12/23 23:11:52;;;;;;;17.17;15.43;;;;;;;6.14;100.00;98469.16;5070652;28;20290;-83